This is the latest recevied weather packets stored in our database for station/object KC9GSD. If no packets are shown the sender has not sent any weather packets the latest 10 day(s).
| Time | Temp. | Humidity | Pressure | Rain* | Wind** | Luminosity | Snow |
|---|---|---|---|---|---|---|---|
| 1777492632 | 27.22° C | 69% | 1011.4 hPa | 0 mm | - | 646 W/m² | - |
| 1777492327 | 26.67° C | 72% | 1011.7 hPa | 0 mm | - | 775 W/m² | - |
| 1777492024 | 26.11° C | 69% | 1011.7 hPa | 0 mm | - | 725 W/m² | - |
| 1777491721 | 26.67° C | 72% | 1011.9 hPa | 0 mm | - | 803 W/m² | - |
| 1777491419 | 27.22° C | 66% | 1011.9 hPa | 0 mm | - | 808 W/m² | - |
| 1777491115 | 26.67° C | 69% | 1012.1 hPa | 0 mm | - | 769 W/m² | - |
| 1777490810 | 27.22° C | 68% | 1012.1 hPa | 0 mm | - | 761 W/m² | - |
| 1777490508 | 26.67° C | 72% | 1012.3 hPa | 0 mm | - | 852 W/m² | - |
| 1777490203 | 26.11° C | 71% | 1012.3 hPa | 0 mm | - | 761 W/m² | - |
| 1777489901 | 26.11° C | 75% | 1012.5 hPa | 0 mm | - | 776 W/m² | - |
| 1777489599 | 26.67° C | 73% | 1012.5 hPa | 0 mm | - | 790 W/m² | - |
| 1777489295 | 26.11° C | 74% | 1012.5 hPa | 0 mm | - | 868 W/m² | - |
| 1777488992 | 26.11° C | 74% | 1012.7 hPa | 0 mm | - | 884 W/m² | - |
| 1777488689 | 25.56° C | 77% | 1012.7 hPa | 0 mm | - | 859 W/m² | - |
| 1777488387 | 26.11° C | 74% | 1012.9 hPa | 0 mm | - | 841 W/m² | - |
| 1777488085 | 25° C | 77% | 1012.8 hPa | 0 mm | - | 843 W/m² | - |
| 1777487783 | 25° C | 77% | 1012.7 hPa | 0 mm | - | 184 W/m² | - |
| 1777487481 | 25.56° C | 75% | 1012.8 hPa | 0 mm | - | 291 W/m² | - |
| 1777487178 | 25° C | 77% | 1012.7 hPa | 0 mm | - | 948 W/m² | - |
| 1777486873 | 25.56° C | 77% | 1012.7 hPa | 0 mm | - | 902 W/m² | - |
| 1777486571 | 25.56° C | 76% | 1012.8 hPa | 0 mm | - | 432 W/m² | - |
| 1777486268 | 25.56° C | 79% | 1012.7 hPa | 0 mm | - | 955 W/m² | - |
| 1777485965 | 25° C | 78% | 1013 hPa | 0 mm | - | 354 W/m² | - |
| 1777485661 | 24.44° C | 78% | 1013.2 hPa | 0 mm | - | 634 W/m² | - |
| 1777485356 | 23.33° C | 83% | 1013.1 hPa | 0 mm | - | 358 W/m² | - |
* Rain latest hour (hover to see other rain measurements)
** Current wind speed in m/s (hover to see current wind gust speed)